createdAt,value
2024-04-25T00:01:00.297Z,96721.58
2024-04-25T00:03:50.157Z,96722.25
2024-04-25T00:06:18.783Z,96719.77
2024-04-25T00:08:47.135Z,96716.71
2024-04-25T00:11:18.479Z,96717.20
2024-04-25T00:13:46.768Z,96719.91
2024-04-25T00:16:16.398Z,96715.54
2024-04-25T00:18:45.888Z,96717.24
2024-04-25T00:21:15.367Z,96713.57
2024-04-25T00:23:43.695Z,96706.62
2024-04-25T00:26:12.180Z,96708.55
2024-04-25T00:28:40.670Z,96709.33
2024-04-25T00:31:08.958Z,96708.40
2024-04-25T00:33:37.471Z,96702.29
2024-04-25T00:39:36.476Z,96700.45
2024-04-25T00:42:04.810Z,96700.85
2024-04-25T00:44:33.268Z,96704.69
2024-04-25T00:47:02.392Z,96708.31
2024-04-25T00:49:31.653Z,96719.74
2024-04-25T00:51:59.963Z,96722.23
2024-04-25T00:54:28.321Z,96727.63
2024-04-25T00:57:00.172Z,96737.05
2024-04-25T00:59:29.158Z,96743.59
2024-04-25T01:02:01.944Z,96750.67
2024-04-25T01:04:32.588Z,96750.38
2024-04-25T01:07:02.562Z,96748.41
2024-04-25T01:09:31.332Z,96747.64
2024-04-25T01:11:59.834Z,96741.17
2024-04-25T01:14:28.325Z,96735.75
2024-04-25T01:16:56.591Z,96735.60
2024-04-25T01:19:24.836Z,96737.08
2024-04-25T01:21:53.125Z,96741.77
2024-04-25T01:24:29.298Z,96743.63
2024-04-25T01:26:58.576Z,96744.71
2024-04-25T01:29:27.825Z,96744.43
2024-04-25T01:31:57.354Z,96749.81
2024-04-25T01:34:26.401Z,96751.07
2024-04-25T01:36:55.486Z,96751.15
2024-04-25T01:39:23.853Z,96754.13
2024-04-25T01:41:52.043Z,96761.23
2024-04-25T01:44:20.358Z,96759.48
2024-04-25T01:46:52.336Z,96751.56
2024-04-25T01:49:20.475Z,96746.88
2024-04-25T01:51:48.773Z,96757.73
2024-04-25T01:54:17.003Z,96760.20
2024-04-25T01:56:45.289Z,96752.54
2024-04-25T01:59:14.045Z,96749.59
2024-04-25T02:01:42.262Z,96755.15
2024-04-25T02:04:10.683Z,96754.88
2024-04-25T02:06:39.236Z,96751.14
2024-04-25T02:09:07.524Z,96745.08
2024-04-25T02:11:36.130Z,96747.86
2024-04-25T02:14:04.534Z,96751.66
2024-04-25T02:16:33.030Z,96747.64
2024-04-25T02:19:04.190Z,96746.45
2024-04-25T02:21:51.713Z,96746.23
2024-04-25T02:24:38.497Z,96748.26
2024-04-25T02:27:06.975Z,96751.57
2024-04-25T02:29:35.441Z,96747.77
2024-04-25T02:32:03.791Z,96749.04
2024-04-25T02:34:32.169Z,96756.72
2024-04-25T02:37:00.579Z,96764.12
2024-04-25T02:39:28.843Z,96764.19
2024-04-25T02:41:57.194Z,96757.08
2024-04-25T02:44:25.443Z,96748.45
2024-04-25T02:46:53.814Z,96740.42
2024-04-25T02:49:22.387Z,96743.98
2024-04-25T02:51:50.705Z,96747.57
2024-04-25T02:54:19.040Z,96748.33
2024-04-25T02:56:47.363Z,96746.85
2024-04-25T02:59:15.674Z,96752.88
2024-04-25T03:01:43.953Z,96757.17
2024-04-25T03:04:12.944Z,96753.33
2024-04-25T03:06:41.397Z,96754.66
2024-04-25T03:09:10.121Z,96749.88
2024-04-25T03:11:38.515Z,96749.89
2024-04-25T03:14:07.305Z,96748.27
2024-04-25T03:16:35.726Z,96749.27
2024-04-25T03:19:04.123Z,96744.47
2024-04-25T03:21:34.257Z,96746.91
2024-04-25T03:24:02.425Z,96748.89
2024-04-25T03:26:30.955Z,96747.11
2024-04-25T03:28:59.315Z,96742.61
2024-04-25T03:31:27.559Z,96746.36
2024-04-25T03:33:55.908Z,96749.63
2024-04-25T03:36:26.002Z,96750.67
2024-04-25T03:38:54.308Z,96751.30
2024-04-25T03:41:22.468Z,96744.08
2024-04-25T03:43:50.631Z,96742.05
2024-04-25T03:46:18.886Z,96736.86
2024-04-25T03:48:50.324Z,96735.70
2024-04-25T03:56:45.893Z,96734.17
2024-04-25T03:59:14.368Z,96741.80
2024-04-25T04:01:42.666Z,96751.30
2024-04-25T04:04:10.926Z,96756.76
2024-04-25T04:06:39.246Z,96759.67
2024-04-25T04:09:07.519Z,96760.34
2024-04-25T04:11:35.885Z,96763.77
2024-04-25T04:14:04.782Z,96774.28
2024-04-25T04:16:33.142Z,96775.94
2024-04-25T04:19:01.983Z,96784.02
2024-04-25T04:21:30.342Z,96786.08
2024-04-25T04:23:58.540Z,96791.31
2024-04-25T04:26:26.834Z,96795.11
2024-04-25T04:28:55.168Z,96792.66
2024-04-25T04:31:23.435Z,96795.54
2024-04-25T04:33:51.774Z,96795.11
2024-04-25T04:36:20.154Z,96797.39
2024-04-25T04:38:48.419Z,96802.02
2024-04-25T04:41:16.689Z,96799.58
2024-04-25T04:43:44.949Z,96797.79
2024-04-25T04:46:13.417Z,96796.96
2024-04-25T04:48:46.823Z,96797.66
2024-04-25T04:51:15.929Z,96803.01
2024-04-25T04:53:44.301Z,96809.33
2024-04-25T04:56:12.841Z,96815.20
2024-04-25T04:58:41.811Z,96812.40
2024-04-25T05:01:10.425Z,96807.27
2024-04-25T05:03:38.963Z,96811.58
2024-04-25T05:06:09.776Z,96812.69
2024-04-25T05:08:39.091Z,96820.02
2024-04-25T05:11:09.787Z,96828.26
2024-04-25T05:13:38.062Z,96825.71
2024-04-25T05:16:06.576Z,96823.07
2024-04-25T05:18:35.350Z,96821.58
2024-04-25T05:21:03.711Z,96822.98
2024-04-25T05:23:32.033Z,96826.48
2024-04-25T05:26:00.394Z,96831.89
2024-04-25T05:28:28.642Z,96835.55
2024-04-25T05:30:57.004Z,96835.31
2024-04-25T05:33:25.410Z,96834.38
2024-04-25T05:35:53.797Z,96838.67
2024-04-25T05:38:22.136Z,96837.90
2024-04-25T05:40:51.109Z,96838.45
2024-04-25T05:43:19.384Z,96839.03
2024-04-25T05:45:47.663Z,96839.88
2024-04-25T05:48:16.215Z,96839.14
2024-04-25T05:50:44.814Z,96839.84
2024-04-25T05:53:13.391Z,96844.59
2024-04-25T05:55:46.220Z,96852.91
2024-04-25T05:58:15.250Z,96850.80
2024-04-25T06:00:46.589Z,96842.20
2024-04-25T06:03:15.122Z,96840.75
2024-04-25T06:05:43.719Z,96841.80
2024-04-25T06:08:12.276Z,96848.13
2024-04-25T06:10:40.682Z,96846.61
2024-04-25T06:13:09.249Z,96846.03
2024-04-25T06:15:37.964Z,96847.14
2024-04-25T06:18:08.677Z,96844.97
2024-04-25T06:20:37.052Z,96839.48
2024-04-25T06:23:06.752Z,96841.32
2024-04-25T06:25:35.264Z,96847.93
2024-04-25T06:28:05.147Z,96845.58
2024-04-25T06:30:38.962Z,96844.75
2024-04-25T06:33:10.293Z,96839.71
2024-04-25T06:35:39.295Z,96836.86
2024-04-25T06:38:10.731Z,96836.16
2024-04-25T06:40:39.574Z,96841.37
2024-04-25T06:43:10.434Z,96843.66
2024-04-25T06:45:42.170Z,96845.59
2024-04-25T06:48:14.330Z,96845.14
2024-04-25T06:50:45.193Z,96845.27
2024-04-25T06:53:16.511Z,96847.65
2024-04-25T06:55:45.054Z,96851.55
2024-04-25T06:58:13.510Z,96849.94
2024-04-25T07:00:42.065Z,96845.98
2024-04-25T07:03:15.280Z,96847.01
2024-04-25T07:05:43.757Z,96849.94
2024-04-25T07:08:12.559Z,96851.98
2024-04-25T07:10:41.312Z,96852.73
2024-04-25T07:13:12.077Z,96853.41
2024-04-25T07:15:40.755Z,96849.31
2024-04-25T07:18:14.248Z,96853.29
2024-04-25T07:20:42.763Z,96853.02
2024-04-25T07:23:11.336Z,96856.20
2024-04-25T07:25:39.827Z,96857.80
2024-04-25T07:28:08.399Z,96855.48
2024-04-25T07:30:36.771Z,96854.34
2024-04-25T07:33:06.068Z,96854.63
2024-04-25T07:35:34.804Z,96858.01
2024-04-25T07:38:03.349Z,96860.36
2024-04-25T07:40:38.189Z,96861.25
2024-04-25T07:43:06.801Z,96858.95
2024-04-25T07:45:35.090Z,96856.75
2024-04-25T07:48:03.780Z,96853.60
2024-04-25T07:50:32.448Z,96854.39
2024-04-25T07:53:01.404Z,96852.13
2024-04-25T07:55:33.270Z,96850.92
2024-04-25T07:58:01.831Z,96855.97
2024-04-25T08:00:38.206Z,96852.17
2024-04-25T08:03:08.324Z,96854.39
2024-04-25T08:05:36.837Z,96856.45
2024-04-25T08:08:05.291Z,96860.80
2024-04-25T08:10:33.888Z,96866.73
2024-04-25T08:13:02.265Z,96866.79
2024-04-25T08:15:33.640Z,96866.23
2024-04-25T08:18:02.255Z,96866.33
2024-04-25T08:20:30.968Z,96864.40
2024-04-25T08:26:30.478Z,96857.21
2024-04-25T08:28:59.415Z,96859.65
2024-04-25T08:31:27.836Z,96857.88
2024-04-25T08:33:56.519Z,96860.65
2024-04-25T08:36:27.546Z,96857.31
2024-04-25T08:38:55.802Z,96853.73
2024-04-25T08:41:24.354Z,96851.50
2024-04-25T08:43:53.059Z,96848.39
2024-04-25T08:46:24.217Z,96843.27
2024-04-25T08:48:57.923Z,96840.32
2024-04-25T08:51:29.372Z,96840.25
2024-04-25T08:54:01.527Z,96843.10
2024-04-25T08:56:34.083Z,96845.52
2024-04-25T08:59:04.939Z,96842.73
2024-04-25T09:01:40.160Z,96842.99
2024-04-25T09:07:35.504Z,96838.41
2024-04-25T09:10:03.949Z,96835.81
2024-04-25T09:12:33.918Z,96839.17
2024-04-25T09:15:03.409Z,96841.38
2024-04-25T09:17:33.194Z,96845.45
2024-04-25T09:20:03.053Z,96845.08
2024-04-25T09:22:32.155Z,96848.95
2024-04-25T09:25:00.453Z,96851.10
2024-04-25T09:27:29.067Z,96848.22
2024-04-25T09:29:58.643Z,96847.93
2024-04-25T09:32:26.986Z,96846.35
2024-04-25T09:35:03.384Z,96842.25
2024-04-25T09:37:34.143Z,96841.36
2024-04-25T09:40:06.156Z,96836.80
2024-04-25T09:42:35.888Z,96828.14
2024-04-25T09:45:12.628Z,96823.67
2024-04-25T09:47:46.849Z,96821.36
2024-04-25T09:50:23.170Z,96819.66
2024-04-25T09:53:04.424Z,96815.91
2024-04-25T09:55:38.863Z,96813.85
2024-04-25T09:58:14.944Z,96803.86
2024-04-25T10:00:45.226Z,96801.67
2024-04-25T10:03:15.982Z,96801.26
2024-04-25T10:05:45.045Z,96793.94
2024-04-25T10:08:13.594Z,96797.73
2024-04-25T10:10:43.096Z,96796.27
2024-04-25T10:13:17.240Z,96790.55
2024-04-25T10:15:51.699Z,96790.88
2024-04-25T10:18:20.361Z,96788.60
2024-04-25T10:21:00.091Z,96781.31
2024-04-25T10:23:35.456Z,96787.47
2024-04-25T10:26:03.824Z,96797.10
2024-04-25T10:28:33.421Z,96801.80
2024-04-25T10:31:02.305Z,96806.73
2024-04-25T10:33:30.786Z,96812.07
2024-04-25T10:36:07.051Z,96808.36
2024-04-25T10:38:35.622Z,96808.79
2024-04-25T10:41:04.031Z,96806.73
2024-04-25T10:43:44.348Z,96809.16
2024-04-25T10:46:12.740Z,96808.45
2024-04-25T10:48:41.229Z,96813.06
2024-04-25T10:51:09.533Z,96814.69
2024-04-25T10:53:37.945Z,96817.55
2024-04-25T10:56:06.373Z,96818.90
2024-04-25T10:58:34.601Z,96825.77
2024-04-25T11:01:02.965Z,96825.92
2024-04-25T11:03:31.229Z,96824.85
2024-04-25T11:05:59.715Z,96825.04
2024-04-25T11:08:28.556Z,96825.98
2024-04-25T11:10:57.310Z,96818.82
2024-04-25T11:13:26.792Z,96813.64
2024-04-25T11:15:56.428Z,96813.06
2024-04-25T11:18:29.399Z,96811.17
2024-04-25T11:21:00.509Z,96808.11
2024-04-25T11:23:32.243Z,96807.94
2024-04-25T11:26:04.519Z,96799.35
2024-04-25T11:28:33.704Z,96798.04
2024-04-25T11:31:03.575Z,96796.83
2024-04-25T11:33:32.199Z,96798.83
2024-04-25T11:36:06.690Z,96803.76
2024-04-25T11:38:35.062Z,96810.84
2024-04-25T11:41:09.441Z,96811.59
2024-04-25T11:43:39.521Z,96803.48
2024-04-25T11:46:07.793Z,96802.81
2024-04-25T11:48:36.075Z,96800.16
2024-04-25T11:51:07.315Z,96799.79
2024-04-25T11:53:36.767Z,96800.88
2024-04-25T11:56:05.712Z,96807.14
2024-04-25T11:58:33.960Z,96808.14
2024-04-25T12:01:04.510Z,96805.88
2024-04-25T12:03:32.794Z,96805.36
2024-04-25T12:06:01.265Z,96806.08
2024-04-25T12:08:30.954Z,96804.02
2024-04-25T12:10:59.569Z,96803.92
2024-04-25T12:13:27.893Z,96805.23
2024-04-25T12:15:56.176Z,96805.98
2024-04-25T12:18:30.019Z,96802.39
2024-04-25T12:21:02.008Z,96800.64
2024-04-25T12:23:30.288Z,96801.69
2024-04-25T12:25:58.432Z,96798.45
2024-04-25T12:28:26.650Z,96791.34
2024-04-25T12:30:54.872Z,96787.58
2024-04-25T12:33:23.175Z,96777.00
2024-04-25T12:35:51.551Z,96772.96
2024-04-25T12:38:20.144Z,96772.29
2024-04-25T12:40:48.301Z,96776.98
2024-04-25T12:43:16.533Z,96780.90
2024-04-25T12:45:48.550Z,96780.86
2024-04-25T12:48:19.175Z,96781.05
2024-04-25T12:50:47.618Z,96786.06
2024-04-25T12:53:16.203Z,96788.02
2024-04-25T12:55:45.120Z,96789.92
2024-04-25T12:58:13.377Z,96791.34
2024-04-25T13:00:44.721Z,96792.64
2024-04-25T13:03:12.971Z,96787.88
2024-04-25T13:05:41.238Z,96785.00
2024-04-25T13:08:10.306Z,96781.04
2024-04-25T13:10:38.480Z,96787.14
2024-04-25T13:13:06.732Z,96795.34
2024-04-25T13:15:35.063Z,96799.09
2024-04-25T13:18:03.427Z,96797.80
2024-04-25T13:20:32.000Z,96794.23
2024-04-25T13:23:00.308Z,96795.58
2024-04-25T13:25:28.548Z,96796.46
2024-04-25T13:27:56.857Z,96798.86
2024-04-25T13:30:25.152Z,96797.45
2024-04-25T13:32:53.694Z,96795.36
2024-04-25T13:35:21.996Z,96803.02
2024-04-25T13:37:50.368Z,96802.09
2024-04-25T13:40:18.752Z,96802.90
2024-04-25T13:42:48.887Z,96801.27
2024-04-25T13:45:20.218Z,96801.08
2024-04-25T13:47:48.608Z,96800.56
2024-04-25T13:50:18.091Z,96798.30
2024-04-25T13:52:47.290Z,96798.63
2024-04-25T13:55:16.577Z,96800.89
2024-04-25T13:57:44.731Z,96805.17
2024-04-25T14:00:13.184Z,96810.08
2024-04-25T14:02:41.456Z,96807.78
2024-04-25T14:05:09.901Z,96806.82
2024-04-25T14:07:38.239Z,96810.12
2024-04-25T14:10:06.725Z,96811.69
2024-04-25T14:12:34.952Z,96811.61
2024-04-25T14:15:06.353Z,96812.46
2024-04-25T14:17:34.615Z,96817.98
2024-04-25T14:20:03.322Z,96821.23
2024-04-25T14:22:31.618Z,96824.46
2024-04-25T14:25:19.762Z,96821.79
2024-04-25T14:28:06.710Z,96820.14
2024-04-25T14:30:35.182Z,96823.72
2024-04-25T14:33:04.021Z,96826.73
2024-04-25T14:35:33.600Z,96832.26
2024-04-25T14:38:02.010Z,96834.85
2024-04-25T14:40:31.104Z,96836.69
2024-04-25T14:42:59.499Z,96835.95
2024-04-25T14:45:28.461Z,96838.23
2024-04-25T14:47:56.790Z,96843.39
2024-04-25T14:50:25.279Z,96845.82
2024-04-25T14:52:53.475Z,96847.56
2024-04-25T14:55:21.710Z,96846.30
2024-04-25T14:57:52.112Z,96849.54
2024-04-25T15:00:20.377Z,96850.08
2024-04-25T15:02:49.412Z,96848.41
2024-04-25T15:05:20.399Z,96847.48
2024-04-25T15:07:48.770Z,96848.35
2024-04-25T15:10:19.251Z,96845.84
2024-04-25T15:12:47.797Z,96847.17
2024-04-25T15:15:21.164Z,96850.14
2024-04-25T15:17:50.048Z,96855.59
2024-04-25T15:20:19.663Z,96854.64
2024-04-25T15:22:48.280Z,96861.05
2024-04-25T15:25:16.771Z,96866.52
2024-04-25T15:27:45.015Z,96870.25
2024-04-25T15:30:14.290Z,96878.42
2024-04-25T15:32:45.695Z,96884.95
2024-04-25T15:35:14.288Z,96890.38
2024-04-25T15:37:42.833Z,96891.63
2024-04-25T15:40:11.330Z,96890.53
2024-04-25T15:42:39.558Z,96891.08
2024-04-25T15:45:08.063Z,96892.50
2024-04-25T15:47:36.443Z,96897.00
2024-04-25T15:50:05.164Z,96898.42
2024-04-25T15:52:35.428Z,96899.91
2024-04-25T15:55:03.935Z,96899.97
2024-04-25T15:57:33.262Z,96900.89
2024-04-25T16:00:01.652Z,96897.91
2024-04-25T16:02:33.543Z,96900.73
2024-04-25T16:05:01.953Z,96898.53
2024-04-25T16:07:30.223Z,96899.58
2024-04-25T16:09:58.422Z,96901.83
2024-04-25T16:12:27.030Z,96901.98
2024-04-25T16:14:57.237Z,96904.59
2024-04-25T16:17:25.885Z,96909.41
2024-04-25T16:19:54.232Z,96907.11
2024-04-25T16:22:22.504Z,96904.27
2024-04-25T16:24:51.013Z,96904.23
2024-04-25T16:27:23.044Z,96903.27
2024-04-25T16:29:51.395Z,96905.13
2024-04-25T16:32:22.990Z,96906.67
2024-04-25T16:34:51.955Z,96903.83
2024-04-25T16:37:21.312Z,96902.77
2024-04-25T16:39:49.532Z,96900.20
2024-04-25T16:42:17.766Z,96900.58
2024-04-25T16:44:46.109Z,96903.11
2024-04-25T16:47:16.214Z,96904.98
2024-04-25T16:49:44.491Z,96909.27
2024-04-25T16:52:13.653Z,96910.20
2024-04-25T16:54:47.995Z,96910.38
2024-04-25T16:57:16.363Z,96913.80
2024-04-25T16:59:47.138Z,96915.98
2024-04-25T17:02:16.526Z,96921.66
2024-04-25T17:04:45.970Z,96927.10
2024-04-25T17:07:14.785Z,96927.56
2024-04-25T17:09:44.438Z,96927.54
2024-04-25T17:12:13.037Z,96927.08
2024-04-25T17:14:41.273Z,96929.14
2024-04-25T17:17:09.893Z,96926.09
2024-04-25T17:19:38.647Z,96927.74
2024-04-25T17:22:10.926Z,96928.21
2024-04-25T17:24:42.342Z,96929.48
2024-04-25T17:27:11.156Z,96931.11
2024-04-25T17:29:42.886Z,96933.79
2024-04-25T17:32:14.665Z,96933.55
2024-04-25T17:34:44.143Z,96933.47
2024-04-25T17:37:13.509Z,96935.55
2024-04-25T17:39:44.656Z,96936.95
2024-04-25T17:42:13.213Z,96938.45
2024-04-25T17:44:46.707Z,96939.08
2024-04-25T17:47:15.992Z,96943.89
2024-04-25T17:49:44.402Z,96948.06
2024-04-25T17:52:12.793Z,96951.80
2024-04-25T17:54:41.239Z,96955.96
2024-04-25T17:57:09.610Z,96957.33
2024-04-25T17:59:38.323Z,96958.23
2024-04-25T18:02:06.746Z,96964.06
2024-04-25T18:04:35.208Z,96968.76
2024-04-25T18:07:08.366Z,96972.69
2024-04-25T18:09:40.572Z,96974.39
2024-04-25T18:12:09.415Z,96975.45
2024-04-25T18:14:37.651Z,96978.60
2024-04-25T18:17:06.022Z,96982.92
2024-04-25T18:19:35.594Z,96981.89
2024-04-25T18:22:04.256Z,96985.25
2024-04-25T18:24:32.540Z,96986.27
2024-04-25T18:27:04.793Z,96992.27
2024-04-25T18:29:32.931Z,96992.70
2024-04-25T18:32:01.391Z,96996.30
2024-04-25T18:34:32.863Z,96996.69
2024-04-25T18:37:01.684Z,96993.95
2024-04-25T18:39:29.843Z,96995.41
2024-04-25T18:42:00.274Z,97000.73
2024-04-25T18:44:28.580Z,96999.26
2024-04-25T18:46:56.748Z,97002.83
2024-04-25T18:49:25.115Z,97008.73
2024-04-25T18:51:53.600Z,97020.11
2024-04-25T18:54:25.082Z,97022.98
2024-04-25T18:56:53.535Z,97021.83
2024-04-25T18:59:22.595Z,97016.13
2024-04-25T19:01:50.858Z,97017.44
2024-04-25T19:04:21.717Z,97014.89
2024-04-25T19:06:51.099Z,97013.42
2024-04-25T19:09:20.927Z,97017.06
2024-04-25T19:11:49.578Z,97018.98
2024-04-25T19:14:18.520Z,97018.14
2024-04-25T19:16:47.320Z,97022.64
2024-04-25T19:19:16.494Z,97026.52
2024-04-25T19:21:47.651Z,97031.68
2024-04-25T19:24:17.895Z,97032.08
2024-04-25T19:26:51.723Z,97031.64
2024-04-25T19:29:20.410Z,97031.84
2024-04-25T19:31:50.560Z,97036.67
2024-04-25T19:34:24.057Z,97043.80
2024-04-25T19:36:53.449Z,97049.36
2024-04-25T19:39:21.955Z,97050.73
2024-04-25T19:41:50.733Z,97049.95
2024-04-25T19:44:19.335Z,97048.73
2024-04-25T19:46:47.754Z,97050.88
2024-04-25T19:49:19.479Z,97050.09
2024-04-25T19:51:48.875Z,97055.85
2024-04-25T19:54:20.985Z,97058.42
2024-04-25T19:56:49.624Z,97060.71
2024-04-25T19:59:18.770Z,97062.92
2024-04-25T20:01:50.318Z,97065.68
2024-04-25T20:04:19.668Z,97064.20
2024-04-25T20:06:51.213Z,97069.27
2024-04-25T20:09:20.641Z,97069.64
2024-04-25T20:11:49.080Z,97072.01
2024-04-25T20:14:18.598Z,97071.58
2024-04-25T20:16:47.189Z,97075.09
2024-04-25T20:19:34.030Z,97081.00
2024-04-25T20:22:02.991Z,97083.83
2024-04-25T20:24:31.446Z,97086.78
2024-04-25T20:27:04.350Z,97088.62
2024-04-25T20:29:33.074Z,97092.55
2024-04-25T20:32:05.139Z,97094.59
2024-04-25T20:34:34.021Z,97096.09
2024-04-25T20:37:02.535Z,97094.99
2024-04-25T20:39:31.024Z,97094.73
2024-04-25T20:41:59.569Z,97094.77
2024-04-25T20:44:28.335Z,97095.08
2024-04-25T20:46:56.943Z,97096.83
2024-04-25T20:49:26.824Z,97098.10
2024-04-25T20:51:59.034Z,97095.86
2024-04-25T20:54:27.589Z,97098.11
2024-04-25T20:56:56.147Z,97100.25
2024-04-25T20:59:24.808Z,97102.16
2024-04-25T21:01:53.303Z,97105.70
2024-04-25T21:04:21.934Z,97111.14
2024-04-25T21:06:50.360Z,97111.63
2024-04-25T21:09:27.925Z,97112.39
2024-04-25T21:11:58.736Z,97108.52
2024-04-25T21:14:27.548Z,97106.98
2024-04-25T21:16:55.819Z,97108.70
2024-04-25T21:19:24.261Z,97108.70
2024-04-25T21:21:52.607Z,97109.85
2024-04-25T21:24:21.011Z,97109.15
2024-04-25T21:26:49.771Z,97109.22
2024-04-25T21:29:18.374Z,97109.73
2024-04-25T21:31:46.836Z,97112.10
2024-04-25T21:34:16.244Z,97115.46
2024-04-25T21:36:44.698Z,97114.38
2024-04-25T21:39:16.089Z,97113.88
2024-04-25T21:41:46.665Z,97115.98
2024-04-25T21:44:15.485Z,97114.20
2024-04-25T21:46:45.428Z,97111.63
2024-04-25T21:49:15.835Z,97110.33
2024-04-25T21:51:46.159Z,97112.89
2024-04-25T21:54:14.742Z,97112.60
2024-04-25T21:56:46.249Z,97111.02
2024-04-25T21:59:15.418Z,97112.89
2024-04-25T22:01:54.356Z,97108.78
2024-04-25T22:04:23.627Z,97109.07
2024-04-25T22:06:51.959Z,97105.10
2024-04-25T22:09:20.258Z,97105.17
2024-04-25T22:11:48.871Z,97103.63
2024-04-25T22:14:17.118Z,97104.81
2024-04-25T22:20:13.106Z,97104.92
2024-04-25T22:22:42.086Z,97109.48
2024-04-25T22:25:12.683Z,97109.73
2024-04-25T22:27:41.266Z,97110.88
2024-04-25T22:30:10.368Z,97114.19
2024-04-25T22:32:38.970Z,97111.37
2024-04-25T22:35:08.316Z,97113.64
2024-04-25T22:37:39.077Z,97106.56
2024-04-25T22:40:07.960Z,97102.02
2024-04-25T22:42:39.353Z,97101.99
2024-04-25T22:45:13.295Z,97103.55
2024-04-25T22:47:47.733Z,97097.46
2024-04-25T22:50:18.722Z,97097.67
2024-04-25T22:52:47.045Z,97097.63
2024-04-25T22:55:15.975Z,97094.58
2024-04-25T22:57:47.850Z,97094.10
2024-04-25T23:00:16.569Z,97098.28
2024-04-25T23:02:46.258Z,97097.27
2024-04-25T23:05:15.264Z,97097.23
2024-04-25T23:07:46.753Z,97103.41
2024-04-25T23:10:17.452Z,97102.58
2024-04-25T23:12:46.527Z,97099.02
2024-04-25T23:15:15.155Z,97094.51
2024-04-25T23:17:43.711Z,97090.94
2024-04-25T23:20:12.358Z,97088.11
2024-04-25T23:22:40.788Z,97088.73
2024-04-25T23:25:09.054Z,97090.04
2024-04-25T23:27:39.776Z,97087.73
2024-04-25T23:30:09.170Z,97083.41
2024-04-25T23:32:43.341Z,97084.84
2024-04-25T23:35:17.840Z,97084.55
2024-04-25T23:37:49.333Z,97087.74
2024-04-25T23:40:17.592Z,97089.05
2024-04-25T23:42:46.134Z,97092.58
2024-04-25T23:45:17.566Z,97093.40
2024-04-25T23:47:46.031Z,97093.63
2024-04-25T23:50:16.198Z,97095.96
2024-04-25T23:52:47.478Z,97098.90
2024-04-25T23:55:15.731Z,97097.91
2024-04-25T23:57:44.254Z,97098.25
